createdAt,value
2019-05-25T00:00:55.271Z,15.13
2019-05-25T00:03:59.296Z,15.08
2019-05-25T00:07:03.595Z,14.99
2019-05-25T00:10:08.405Z,14.92
2019-05-25T00:13:12.434Z,14.86
2019-05-25T00:16:16.485Z,14.78
2019-05-25T00:19:20.765Z,14.75
2019-05-25T00:22:25.112Z,14.73
2019-05-25T00:25:29.186Z,14.69
2019-05-25T00:28:33.462Z,14.62
2019-05-25T00:31:37.336Z,14.59
2019-05-25T00:34:41.881Z,14.56
2019-05-25T00:37:46.052Z,14.53
2019-05-25T00:40:50.074Z,14.52
2019-05-25T00:43:54.603Z,14.53
2019-05-25T00:46:58.556Z,14.46
2019-05-25T00:50:02.582Z,14.38
2019-05-25T00:53:06.569Z,14.32
2019-05-25T00:56:11.218Z,14.30
2019-05-25T00:59:15.314Z,14.28
2019-05-25T01:02:19.332Z,14.25
2019-05-25T01:05:23.673Z,14.20
2019-05-25T01:08:27.881Z,14.17
2019-05-25T01:11:32.115Z,14.10
2019-05-25T01:14:36.140Z,14.03
2019-05-25T01:17:40.451Z,13.88
2019-05-25T01:20:44.955Z,13.85
2019-05-25T01:23:49.208Z,13.84
2019-05-25T01:26:53.416Z,13.84
2019-05-25T01:29:57.944Z,13.81
2019-05-25T01:33:02.473Z,13.80
2019-05-25T01:36:06.572Z,13.81
2019-05-25T01:39:10.508Z,13.80
2019-05-25T01:42:14.794Z,13.74
2019-05-25T01:45:19.415Z,13.71
2019-05-25T01:48:23.352Z,13.63
2019-05-25T01:51:27.552Z,13.55
2019-05-25T01:54:31.819Z,13.48
2019-05-25T01:57:35.847Z,13.44
2019-05-25T02:00:40.354Z,13.42
2019-05-25T02:03:44.356Z,13.36
2019-05-25T02:06:48.370Z,13.35
2019-05-25T02:09:52.375Z,13.36
2019-05-25T02:12:56.819Z,13.41
2019-05-25T02:16:01.087Z,13.47
2019-05-25T02:19:05.576Z,13.51
2019-05-25T02:22:09.880Z,13.51
2019-05-25T02:25:18.356Z,13.55
2019-05-25T02:28:20.493Z,13.61
2019-05-25T02:31:24.828Z,13.69
2019-05-25T02:34:28.829Z,13.78
2019-05-25T02:37:33.064Z,13.86
2019-05-25T02:40:37.430Z,13.87
2019-05-25T02:43:41.433Z,13.87
2019-05-25T02:46:45.811Z,13.81
2019-05-25T02:49:50.546Z,13.85
2019-05-25T02:52:55.248Z,13.88
2019-05-25T02:55:59.189Z,13.87
2019-05-25T02:59:03.244Z,13.91
2019-05-25T03:02:07.545Z,13.95
2019-05-25T03:05:15.486Z,13.99
2019-05-25T03:08:19.597Z,13.98
2019-05-25T03:11:23.735Z,13.95
2019-05-25T03:14:28.102Z,13.98
2019-05-25T03:17:32.415Z,14.02
2019-05-25T03:20:36.739Z,14.04
2019-05-25T03:23:41.005Z,14.08
2019-05-25T03:26:47.478Z,14.08
2019-05-25T03:29:51.637Z,14.07
2019-05-25T03:32:55.918Z,13.98
2019-05-25T03:35:59.872Z,13.89
2019-05-25T03:39:05.865Z,13.84
2019-05-25T03:42:10.137Z,13.85
2019-05-25T03:45:14.162Z,13.94
2019-05-25T03:48:18.502Z,13.98
2019-05-25T03:51:22.800Z,14.02
2019-05-25T03:54:26.858Z,14.04
2019-05-25T03:57:31.167Z,14.09
2019-05-25T04:00:36.741Z,14.08
2019-05-25T04:03:40.647Z,14.09
2019-05-25T04:06:44.828Z,14.08
2019-05-25T04:09:49.042Z,14.13
2019-05-25T04:12:52.992Z,14.16
2019-05-25T04:15:57.280Z,14.07
2019-05-25T04:19:01.161Z,14.05
2019-05-25T04:22:05.619Z,14.01
2019-05-25T04:25:10.147Z,14.00
2019-05-25T04:28:14.360Z,13.98
2019-05-25T04:31:18.689Z,13.91
2019-05-25T04:34:22.728Z,13.94
2019-05-25T04:37:26.964Z,14.01
2019-05-25T04:40:30.953Z,14.04
2019-05-25T04:43:35.665Z,14.03
2019-05-25T04:46:39.925Z,14.02
2019-05-25T04:49:44.041Z,14.02
2019-05-25T04:52:48.223Z,13.99
2019-05-25T04:55:52.732Z,13.96
2019-05-25T04:58:57.269Z,13.97
2019-05-25T05:02:01.877Z,13.98
2019-05-25T05:05:07.092Z,14.01
2019-05-25T05:08:11.383Z,14.01
2019-05-25T05:11:15.712Z,14.05
2019-05-25T05:14:19.809Z,14.11
2019-05-25T05:17:23.744Z,14.16
2019-05-25T05:20:27.786Z,14.23
2019-05-25T05:23:32.274Z,14.25
2019-05-25T05:26:36.505Z,14.33
2019-05-25T05:29:40.977Z,14.47
2019-05-25T05:32:45.351Z,14.63
2019-05-25T05:35:50.439Z,14.79
2019-05-25T05:38:55.529Z,14.85
2019-05-25T05:42:01.053Z,15.03
2019-05-25T05:45:06.217Z,15.18
2019-05-25T05:48:12.537Z,15.33
2019-05-25T05:51:19.993Z,15.51
2019-05-25T05:54:24.143Z,15.72
2019-05-25T05:57:28.131Z,15.87
2019-05-25T06:00:32.172Z,15.97
2019-05-25T06:03:36.663Z,16.08
2019-05-25T06:06:41.053Z,16.17
2019-05-25T06:09:45.617Z,16.28
2019-05-25T06:12:50.246Z,16.37
2019-05-25T06:15:56.080Z,16.39
2019-05-25T06:19:00.434Z,16.33
2019-05-25T06:22:04.717Z,16.32
2019-05-25T06:25:09.586Z,16.31
2019-05-25T06:28:13.859Z,16.24
2019-05-25T06:31:18.283Z,16.09
2019-05-25T06:34:22.297Z,15.96
2019-05-25T06:37:26.869Z,15.82
2019-05-25T06:40:30.892Z,15.79
2019-05-25T06:43:35.149Z,15.79
2019-05-25T06:46:39.920Z,15.77
2019-05-25T06:49:44.171Z,15.74
2019-05-25T06:52:48.203Z,15.74
2019-05-25T06:55:52.154Z,15.67
2019-05-25T06:58:56.608Z,15.73
2019-05-25T07:02:00.684Z,15.82
2019-05-25T07:05:05.577Z,15.91
2019-05-25T07:08:09.894Z,16.04
2019-05-25T07:11:13.925Z,16.14
2019-05-25T07:14:18.236Z,16.19
2019-05-25T07:17:22.659Z,16.17
2019-05-25T07:20:27.462Z,16.05
2019-05-25T07:23:31.514Z,16.00
2019-05-25T07:26:35.551Z,16.02
2019-05-25T07:29:39.829Z,16.12
2019-05-25T07:32:44.090Z,16.25
2019-05-25T07:35:48.306Z,16.35
2019-05-25T07:38:52.377Z,16.45
2019-05-25T07:41:56.648Z,16.59
2019-05-25T07:45:00.957Z,16.79
2019-05-25T07:48:04.995Z,17.09
2019-05-25T07:51:09.418Z,18.40
2019-05-25T07:54:13.954Z,19.55
2019-05-25T07:57:18.247Z,20.12
2019-05-25T08:00:22.284Z,20.88
2019-05-25T08:03:26.739Z,21.44
2019-05-25T08:06:31.451Z,21.47
2019-05-25T08:09:36.120Z,21.27
2019-05-25T08:12:40.695Z,20.88
2019-05-25T08:15:45.097Z,20.88
2019-05-25T08:18:49.603Z,20.76
2019-05-25T08:21:54.647Z,20.67
2019-05-25T08:24:59.765Z,20.62
2019-05-25T08:28:05.430Z,20.93
2019-05-25T08:31:11.059Z,21.20
2019-05-25T08:34:18.242Z,21.29
2019-05-25T08:37:25.690Z,21.14
2019-05-25T08:40:30.053Z,21.21
2019-05-25T08:43:34.266Z,21.28
2019-05-25T08:46:38.678Z,21.09
2019-05-25T08:49:44.290Z,21.25
2019-05-25T08:52:50.832Z,21.63
2019-05-25T08:55:58.395Z,21.57
2019-05-25T08:59:07.197Z,21.60
2019-05-25T09:02:14.767Z,21.62
2019-05-25T09:05:20.398Z,21.58
2019-05-25T09:08:25.030Z,21.85
2019-05-25T09:11:29.105Z,21.96
2019-05-25T09:14:33.156Z,21.99
2019-05-25T09:17:37.262Z,21.78
2019-05-25T09:20:41.284Z,21.26
2019-05-25T09:23:48.594Z,21.37
2019-05-25T09:26:51.290Z,21.36
2019-05-25T09:29:55.324Z,21.27
2019-05-25T09:32:59.642Z,21.37
2019-05-25T09:36:03.681Z,21.50
2019-05-25T09:39:08.713Z,21.62
2019-05-25T09:42:12.658Z,21.47
2019-05-25T09:45:17.545Z,21.13
2019-05-25T09:51:24.641Z,21.04
2019-05-25T09:54:29.082Z,21.13
2019-05-25T09:57:33.446Z,21.31
2019-05-25T10:00:40.380Z,21.42
2019-05-25T10:03:43.208Z,21.61
2019-05-25T10:06:47.485Z,21.51
2019-05-25T10:09:51.502Z,21.68
2019-05-25T10:12:55.572Z,21.84
2019-05-25T10:15:59.521Z,21.69
2019-05-25T10:19:03.874Z,21.54
2019-05-25T10:22:07.883Z,21.79
2019-05-25T10:25:13.335Z,21.87
2019-05-25T10:28:17.339Z,21.81
2019-05-25T10:31:21.593Z,21.95
2019-05-25T10:34:25.532Z,22.01
2019-05-25T10:37:29.612Z,22.10
2019-05-25T10:40:33.824Z,22.13
2019-05-25T10:43:37.845Z,22.15
2019-05-25T10:46:42.144Z,22.34
2019-05-25T10:49:46.465Z,22.46
2019-05-25T10:52:50.477Z,22.34
2019-05-25T10:55:54.841Z,22.51
2019-05-25T10:58:59.021Z,22.60
2019-05-25T11:02:03.135Z,22.62
2019-05-25T11:05:09.382Z,22.55
2019-05-25T11:08:13.639Z,22.43
2019-05-25T11:11:17.997Z,22.52
2019-05-25T11:14:22.054Z,22.70
2019-05-25T11:17:25.912Z,22.79
2019-05-25T11:20:29.938Z,22.88
2019-05-25T11:23:33.941Z,22.79
2019-05-25T11:26:38.553Z,22.46
2019-05-25T11:29:42.865Z,22.95
2019-05-25T11:32:46.874Z,23.24
2019-05-25T11:35:51.249Z,23.41
2019-05-25T11:38:55.280Z,23.62
2019-05-25T11:41:59.788Z,23.65
2019-05-25T11:45:04.138Z,23.85
2019-05-25T11:48:08.505Z,23.80
2019-05-25T11:51:12.780Z,23.64
2019-05-25T11:54:16.797Z,23.64
2019-05-25T11:57:21.137Z,23.56
2019-05-25T12:00:26.222Z,23.49
2019-05-25T12:03:30.233Z,23.41
2019-05-25T12:06:34.169Z,23.76
2019-05-25T12:09:38.445Z,23.72
2019-05-25T12:12:42.696Z,23.84
2019-05-25T12:15:46.877Z,23.66
2019-05-25T12:18:50.874Z,23.55
2019-05-25T12:21:55.124Z,23.42
2019-05-25T12:24:59.447Z,23.49
2019-05-25T12:28:03.535Z,23.31
2019-05-25T12:31:07.577Z,23.53
2019-05-25T12:34:11.805Z,23.74
2019-05-25T12:37:16.175Z,24.16
2019-05-25T12:40:20.864Z,24.02
2019-05-25T12:43:24.716Z,23.90
2019-05-25T12:46:28.691Z,23.74
2019-05-25T12:49:49.389Z,23.71
2019-05-25T12:52:38.758Z,23.72
2019-05-25T12:55:42.982Z,23.74
2019-05-25T12:58:49.558Z,23.77
2019-05-25T13:01:53.059Z,24.17
2019-05-25T13:04:57.507Z,24.10
2019-05-25T13:08:01.513Z,23.86
2019-05-25T13:11:09.388Z,24.03
2019-05-25T13:14:14.471Z,23.89
2019-05-25T13:17:17.310Z,24.00
2019-05-25T13:20:21.321Z,23.96
2019-05-25T13:23:25.555Z,24.06
2019-05-25T13:26:30.321Z,24.19
2019-05-25T13:29:34.565Z,23.95
2019-05-25T13:32:38.546Z,23.84
2019-05-25T13:35:42.602Z,23.81
2019-05-25T13:38:47.317Z,24.23
2019-05-25T13:41:51.377Z,24.42
2019-05-25T13:44:55.933Z,24.47
2019-05-25T13:47:59.923Z,24.68
2019-05-25T13:51:03.973Z,24.82
2019-05-25T13:54:08.289Z,24.79
2019-05-25T13:57:12.925Z,24.57
2019-05-25T14:00:17.434Z,24.67
2019-05-25T14:03:21.381Z,24.60
2019-05-25T14:06:25.455Z,24.99
2019-05-25T14:09:29.755Z,25.41
2019-05-25T14:12:33.711Z,25.39
2019-05-25T14:15:37.990Z,25.46
2019-05-25T14:18:41.994Z,25.66
2019-05-25T14:21:45.921Z,26.00
2019-05-25T14:24:50.088Z,25.65
2019-05-25T14:27:54.022Z,25.70
2019-05-25T14:30:58.034Z,25.77
2019-05-25T14:34:02.037Z,25.68
2019-05-25T14:37:06.287Z,26.10
2019-05-25T14:40:11.912Z,26.45
2019-05-25T14:43:16.472Z,26.53
2019-05-25T14:46:28.001Z,26.55
2019-05-25T14:49:27.224Z,26.48
2019-05-25T14:52:31.244Z,26.44
2019-05-25T14:55:35.665Z,26.17
2019-05-25T14:58:40.237Z,26.13
2019-05-25T15:01:59.591Z,26.07
2019-05-25T15:04:50.321Z,26.00
2019-05-25T15:07:54.702Z,25.79
2019-05-25T15:10:59.021Z,25.46
2019-05-25T15:14:03.375Z,25.27
2019-05-25T15:17:07.364Z,25.15
2019-05-25T15:20:12.348Z,25.07
2019-05-25T15:23:16.618Z,24.96
2019-05-25T15:26:20.565Z,24.80
2019-05-25T15:29:24.868Z,24.68
2019-05-25T15:32:28.968Z,24.72
2019-05-25T15:35:33.014Z,24.73
2019-05-25T15:38:36.886Z,24.69
2019-05-25T15:41:40.829Z,24.65
2019-05-25T15:44:45.958Z,24.62
2019-05-25T15:47:49.969Z,24.72
2019-05-25T15:50:53.967Z,24.87
2019-05-25T15:53:57.999Z,25.16
2019-05-25T15:57:02.019Z,25.48
2019-05-25T16:00:08.068Z,25.65
2019-05-25T16:03:12.134Z,25.75
2019-05-25T16:06:16.132Z,25.70
2019-05-25T16:09:20.403Z,25.68
2019-05-25T16:12:24.348Z,25.58
2019-05-25T16:15:28.562Z,25.35
2019-05-25T16:18:32.955Z,25.18
2019-05-25T16:21:37.500Z,24.98
2019-05-25T16:24:41.521Z,24.80
2019-05-25T16:27:46.165Z,24.67
2019-05-25T16:30:50.505Z,24.50
2019-05-25T16:33:54.542Z,24.46
2019-05-25T16:36:59.090Z,24.39
2019-05-25T16:40:03.442Z,24.41
2019-05-25T16:43:07.456Z,24.42
2019-05-25T16:46:11.537Z,24.39
2019-05-25T16:49:16.868Z,24.38
2019-05-25T16:52:20.812Z,24.38
2019-05-25T16:55:25.076Z,24.33
2019-05-25T16:58:29.672Z,24.20
2019-05-25T17:01:47.430Z,24.20
2019-05-25T17:04:39.429Z,24.17
2019-05-25T17:07:43.443Z,24.15
2019-05-25T17:10:47.441Z,24.17
2019-05-25T17:13:51.753Z,24.17
2019-05-25T17:16:55.899Z,24.15
2019-05-25T17:20:00.075Z,24.11
2019-05-25T17:23:04.442Z,23.99
2019-05-25T17:26:08.506Z,23.92
2019-05-25T17:29:12.823Z,23.83
2019-05-25T17:32:16.836Z,23.79
2019-05-25T17:35:20.871Z,23.72
2019-05-25T17:38:24.969Z,23.54
2019-05-25T17:41:28.993Z,23.43
2019-05-25T17:44:33.374Z,23.38
2019-05-25T17:47:37.693Z,23.29
2019-05-25T17:50:41.737Z,23.19
2019-05-25T17:53:46.003Z,23.13
2019-05-25T17:56:50.526Z,23.13
2019-05-25T17:59:54.802Z,23.11
2019-05-25T18:02:58.738Z,23.17
2019-05-25T18:06:02.759Z,23.21
2019-05-25T18:09:08.087Z,23.21
2019-05-25T18:12:12.089Z,23.17
2019-05-25T18:15:16.222Z,23.11
2019-05-25T18:18:21.228Z,22.94
2019-05-25T18:21:25.176Z,22.76
2019-05-25T18:24:29.566Z,22.62
2019-05-25T18:27:34.090Z,22.44
2019-05-25T18:30:38.376Z,22.30
2019-05-25T18:33:42.372Z,22.20
2019-05-25T18:36:46.664Z,22.02
2019-05-25T18:39:50.686Z,21.82
2019-05-25T18:42:54.550Z,21.63
2019-05-25T18:45:58.633Z,21.46
2019-05-25T18:49:02.942Z,21.28
2019-05-25T18:52:07.240Z,21.13
2019-05-25T18:55:11.478Z,20.96
2019-05-25T18:58:15.919Z,20.76
2019-05-25T19:01:19.951Z,20.56
2019-05-25T19:04:41.846Z,20.40
2019-05-25T19:07:30.100Z,20.24
2019-05-25T19:10:34.153Z,20.10
2019-05-25T19:13:38.816Z,19.97
2019-05-25T19:16:43.360Z,19.82
2019-05-25T19:19:47.688Z,19.68
2019-05-25T19:22:52.110Z,19.56
2019-05-25T19:25:56.432Z,19.41
2019-05-25T19:29:00.445Z,19.31
2019-05-25T19:32:04.552Z,19.20
2019-05-25T19:35:09.813Z,19.04
2019-05-25T19:38:13.759Z,18.89
2019-05-25T19:41:18.675Z,18.77
2019-05-25T19:44:23.292Z,18.65
2019-05-25T19:47:27.641Z,18.57
2019-05-25T19:50:31.660Z,18.47
2019-05-25T19:53:35.892Z,18.40
2019-05-25T19:56:39.914Z,18.30
2019-05-25T19:59:44.117Z,18.20
2019-05-25T20:02:48.638Z,18.11
2019-05-25T20:05:53.342Z,17.97
2019-05-25T20:08:57.670Z,17.87
2019-05-25T20:12:02.527Z,17.76
2019-05-25T20:15:07.136Z,17.70
2019-05-25T20:18:11.140Z,17.59
2019-05-25T20:21:15.404Z,17.47
2019-05-25T20:24:19.931Z,17.39
2019-05-25T20:27:24.285Z,17.34
2019-05-25T20:30:28.653Z,17.20
2019-05-25T20:33:35.000Z,17.00
2019-05-25T20:36:38.905Z,17.00
2019-05-25T20:39:42.940Z,16.92
2019-05-25T20:42:47.362Z,16.84
2019-05-25T20:45:51.328Z,16.79
2019-05-25T20:48:55.264Z,16.76
2019-05-25T20:51:59.445Z,16.69
2019-05-25T20:55:04.045Z,16.56
2019-05-25T20:58:08.138Z,16.43
2019-05-25T21:01:12.641Z,16.39
2019-05-25T21:04:17.008Z,16.36
2019-05-25T21:07:21.287Z,16.33
2019-05-25T21:10:25.182Z,16.25
2019-05-25T21:13:29.137Z,16.15
2019-05-25T21:16:33.903Z,16.12
2019-05-25T21:19:38.333Z,16.03
2019-05-25T21:22:42.559Z,15.96
2019-05-25T21:25:46.988Z,15.91
2019-05-25T21:28:51.388Z,15.89
2019-05-25T21:31:55.669Z,15.90
2019-05-25T21:34:59.828Z,15.88
2019-05-25T21:38:03.784Z,15.86
2019-05-25T21:41:08.677Z,15.77
2019-05-25T21:44:12.628Z,15.73
2019-05-25T21:47:16.599Z,15.67
2019-05-25T21:50:20.665Z,15.61
2019-05-25T21:53:24.696Z,15.59
2019-05-25T21:56:28.685Z,15.58
2019-05-25T21:59:33.001Z,15.51
2019-05-25T22:02:37.133Z,15.44
2019-05-25T22:05:41.397Z,15.37
2019-05-25T22:08:45.300Z,15.27
2019-05-25T22:11:49.292Z,15.10
2019-05-25T22:14:53.663Z,15.04
2019-05-25T22:17:57.933Z,15.02
2019-05-25T22:21:02.011Z,14.95
2019-05-25T22:24:06.047Z,14.92
2019-05-25T22:27:10.505Z,14.91
2019-05-25T22:30:15.172Z,14.85
2019-05-25T22:33:21.697Z,14.75
2019-05-25T22:36:39.210Z,14.71
2019-05-25T22:39:31.380Z,14.65
2019-05-25T22:42:35.434Z,14.59
2019-05-25T22:45:39.316Z,14.56
2019-05-25T22:48:49.087Z,14.50
2019-05-25T22:51:53.117Z,14.41
2019-05-25T22:54:57.095Z,14.38
2019-05-25T22:58:01.639Z,14.33
2019-05-25T23:01:05.655Z,14.27
2019-05-25T23:04:09.843Z,14.20
2019-05-25T23:07:14.213Z,14.16
2019-05-25T23:10:18.718Z,14.04
2019-05-25T23:13:22.924Z,14.01
2019-05-25T23:16:27.175Z,13.98
2019-05-25T23:19:31.458Z,13.95
2019-05-25T23:22:35.511Z,13.88
2019-05-25T23:25:39.788Z,13.79
2019-05-25T23:28:44.117Z,13.73
2019-05-25T23:31:47.975Z,13.65
2019-05-25T23:34:51.919Z,13.58
2019-05-25T23:37:56.261Z,13.54
2019-05-25T23:41:00.284Z,13.49
2019-05-25T23:44:04.288Z,13.39
2019-05-25T23:47:08.575Z,13.33
2019-05-25T23:50:13.136Z,13.31
2019-05-25T23:53:17.086Z,13.29
2019-05-25T23:56:21.013Z,13.30
2019-05-25T23:59:25.583Z,13.26
